Time;durP1;ratioP1;P1;durP2;ratioP2;P2;SDS_P1;SDS_P2;PMS_P1;PMS_P2;Temp;Humidity;BMP_temperature;BMP_pressure;BME280_temperature;BME280_humidity;BME280_pressure;Samples;Min_cycle;Max_cycle;Signal;HPM_P1;HPM_P2
2023/10/15 00:00:25;;;;;;;1.35;0.85;;;;;;;12.29;81.07;94363.66;5060463;28;20264;-76
2023/10/15 00:02:52;;;;;;;0.20;0.20;;;;;;;12.25;81.02;94368.97;5052676;28;20207;-77
2023/10/15 00:05:21;;;;;;;3.33;0.80;;;;;;;12.30;80.51;94359.81;5052523;28;20626;-76
2023/10/15 00:07:51;;;;;;;0.75;0.73;;;;;;;12.37;80.88;94370.88;5050276;28;20203;-76
2023/10/15 00:10:21;;;;;;;0.30;0.30;;;;;;;12.36;80.38;94353.00;5060033;28;20219;-75
2023/10/15 00:12:50;;;;;;;2.55;1.23;;;;;;;12.29;81.15;94347.38;5056332;28;20219;-76
2023/10/15 00:15:18;;;;;;;2.28;1.85;;;;;;;12.21;81.54;94351.00;5049943;28;20207;-77
2023/10/15 00:17:46;;;;;;;3.55;2.10;;;;;;;12.18;81.54;94348.97;5049364;28;20233;-76
2023/10/15 00:20:16;;;;;;;3.25;1.80;;;;;;;12.29;80.98;94348.16;5050398;28;20231;-76
2023/10/15 00:22:44;;;;;;;2.03;1.48;;;;;;;12.26;80.83;94348.84;5046009;28;20642;-77
2023/10/15 00:25:14;;;;;;;2.42;1.30;;;;;;;12.41;80.54;94334.53;5053135;28;20203;-77
2023/10/15 00:27:42;;;;;;;0.50;0.50;;;;;;;12.26;81.02;94343.41;5049622;28;20269;-77
2023/10/15 00:30:13;;;;;;;0.55;0.55;;;;;;;12.17;81.56;94342.75;5050138;28;20606;-78
2023/10/15 00:32:43;;;;;;;0.30;0.30;;;;;;;12.16;81.95;94348.53;5050035;28;20235;-76
2023/10/15 00:35:11;;;;;;;1.95;1.30;;;;;;;12.10;82.05;94345.25;5050396;28;20285;-77
2023/10/15 00:37:40;;;;;;;1.10;1.00;;;;;;;12.03;82.07;94343.13;5049817;28;20312;-77
2023/10/15 00:40:16;;;;;;;0.38;0.38;;;;;;;11.94;82.59;94344.41;5050222;28;20220;-77
2023/10/15 00:42:46;;;;;;;0.20;0.20;;;;;;;11.97;82.41;94346.44;5055089;28;20240;-76
2023/10/15 00:45:14;;;;;;;0.20;0.20;;;;;;;11.91;82.82;94348.56;5052767;28;20568;-76
2023/10/15 00:47:42;;;;;;;0.55;0.55;;;;;;;11.91;82.71;94348.56;5049755;28;20215;-76
2023/10/15 00:50:10;;;;;;;0.30;0.30;;;;;;;11.92;83.00;94350.16;5054931;28;20207;-76
2023/10/15 00:52:42;;;;;;;0.15;0.15;;;;;;;12.01;82.68;94337.28;5056982;28;20239;-76
2023/10/15 00:55:16;;;;;;;0.10;0.10;;;;;;;11.98;82.64;94343.38;5051293;28;20203;-76
2023/10/15 00:57:46;;;;;;;0.43;0.43;;;;;;;11.96;82.48;94334.78;5050176;28;20215;-76
2023/10/15 01:02:56;;;;;;;0.40;0.40;;;;;;;11.80;83.32;94333.09;5039035;28;20219;-78
2023/10/15 01:05:24;;;;;;;0.32;0.32;;;;;;;11.90;83.28;94325.28;5050731;28;20211;-78
2023/10/15 01:07:51;;;;;;;0.22;0.22;;;;;;;11.82;83.58;94334.34;5049943;28;20200;-79
2023/10/15 01:10:31;;;;;;;0.38;0.38;;;;;;;11.82;83.39;94328.94;5050142;28;20580;-77
2023/10/15 01:13:10;;;;;;;0.10;0.10;;;;;;;11.81;83.66;94329.28;5049530;28;20215;-79
2023/10/15 01:15:42;;;;;;;0.30;0.30;;;;;;;11.75;84.28;94318.63;5042898;28;20655;-80
2023/10/15 01:18:10;;;;;;;0.52;0.38;;;;;;;11.73;84.07;94325.53;5049641;28;20711;-80
2023/10/15 01:20:40;;;;;;;0.20;0.20;;;;;;;11.64;84.90;94308.56;5050013;28;20211;-77
2023/10/15 01:23:07;;;;;;;1.05;1.05;;;;;;;11.63;84.86;94313.22;5049525;28;20219;-77
2023/10/15 01:25:45;;;;;;;0.20;0.20;;;;;;;11.49;85.09;94320.91;5049256;28;20204;-77
2023/10/15 01:28:13;;;;;;;0.10;0.10;;;;;;;11.50;85.00;94316.28;5050160;28;20634;-79
2023/10/15 01:30:41;;;;;;;0.45;0.45;;;;;;;11.40;85.26;94322.97;5052753;28;20313;-79
2023/10/15 01:33:10;;;;;;;2.90;2.20;;;;;;;11.50;84.88;94324.41;5053074;28;20215;-78
2023/10/15 01:35:40;;;;;;;2.42;1.70;;;;;;;11.50;84.74;94327.91;5053031;28;20199;-79
2023/10/15 01:38:20;;;;;;;2.10;1.75;;;;;;;11.50;85.03;94337.97;5053362;28;20318;-79
2023/10/15 01:40:56;;;;;;;1.90;1.60;;;;;;;11.47;85.07;94334.03;5053339;28;20587;-80
2023/10/15 01:43:23;;;;;;;0.63;0.63;;;;;;;11.47;85.18;94338.69;5061388;28;20611;-79
2023/10/15 01:45:56;;;;;;;0.30;0.30;;;;;;;11.47;84.92;94330.53;5052901;28;20207;-79
2023/10/15 01:48:27;;;;;;;1.35;1.10;;;;;;;11.51;84.57;94323.28;5052761;28;20231;-79
2023/10/15 01:51:04;;;;;;;0.63;0.45;;;;;;;11.55;84.45;94332.31;5054505;28;20200;-79
2023/10/15 01:53:34;;;;;;;0.30;0.30;;;;;;;11.57;84.35;94332.78;5055716;28;20603;-74
2023/10/15 01:56:03;;;;;;;0.20;0.20;;;;;;;11.47;84.55;94323.19;5065704;28;20211;-75
2023/10/15 01:58:39;;;;;;;0.20;0.20;;;;;;;11.45;84.90;94325.44;5052758;28;20228;-73
2023/10/15 02:01:20;;;;;;;0.32;0.32;;;;;;;11.45;84.80;94319.22;5053009;28;20200;-74
2023/10/15 02:03:47;;;;;;;2.75;0.60;;;;;;;11.50;84.83;94321.69;5053024;28;20214;-73
2023/10/15 02:06:16;;;;;;;0.30;0.30;;;;;;;11.46;84.83;94310.75;5053040;28;20262;-74
2023/10/15 02:08:45;;;;;;;0.20;0.20;;;;;;;11.47;85.06;94316.97;5052735;28;20204;-74
2023/10/15 02:11:22;;;;;;;0.43;0.43;;;;;;;11.40;85.46;94318.31;5052596;28;20207;-73
2023/10/15 02:13:49;;;;;;;0.30;0.30;;;;;;;11.35;85.70;94309.63;5053120;28;20199;-73
2023/10/15 02:16:25;;;;;;;3.58;1.88;;;;;;;11.24;85.96;94314.72;5052717;28;20204;-73
2023/10/15 02:18:52;;;;;;;2.80;1.80;;;;;;;11.10;86.34;94314.25;5051006;28;20243;-74
2023/10/15 02:21:19;;;;;;;0.20;0.20;;;;;;;11.03;86.91;94322.16;5052660;28;20207;-75
2023/10/15 02:23:51;;;;;;;0.73;0.73;;;;;;;11.03;86.59;94314.03;5052693;28;20215;-73
2023/10/15 02:26:23;;;;;;;2.45;1.80;;;;;;;10.98;86.73;94325.09;5052860;28;20366;-73
2023/10/15 02:28:53;;;;;;;4.05;2.10;;;;;;;10.97;86.84;94327.00;5052564;28;20279;-75
2023/10/15 02:31:22;;;;;;;3.35;2.05;;;;;;;10.97;86.67;94326.22;5059078;28;20255;-73
2023/10/15 02:33:50;;;;;;;2.97;1.63;;;;;;;11.04;86.51;94321.84;5052635;28;20301;-74
2023/10/15 02:36:17;;;;;;;3.47;2.22;;;;;;;10.97;87.10;94318.09;5052815;28;20633;-73
2023/10/15 02:38:54;;;;;;;0.20;0.20;;;;;;;10.97;87.02;94316.16;5051822;28;20227;-74
2023/10/15 02:41:25;;;;;;;0.20;0.20;;;;;;;11.01;86.89;94321.72;5051360;28;20199;-73
2023/10/15 02:43:55;;;;;;;0.30;0.30;;;;;;;10.97;86.81;94318.09;5060635;28;20242;-73
2023/10/15 02:46:24;;;;;;;0.20;0.20;;;;;;;10.90;87.61;94331.41;5052443;28;20199;-73
2023/10/15 02:48:53;;;;;;;1.98;0.82;;;;;;;10.86;87.96;94330.50;5050424;28;20211;-73
2023/10/15 02:51:24;;;;;;;0.28;0.28;;;;;;;10.87;87.87;94316.59;5053274;28;20325;-73
2023/10/15 02:53:53;;;;;;;0.15;0.15;;;;;;;10.95;88.15;94312.19;5052049;28;20298;-74
2023/10/15 02:56:22;;;;;;;2.72;2.10;;;;;;;10.88;88.02;94311.97;5052071;28;20289;-74
2023/10/15 02:58:50;;;;;;;4.45;2.55;;;;;;;10.88;88.33;94312.78;5051959;28;20235;-73
2023/10/15 03:01:20;;;;;;;0.65;0.65;;;;;;;10.81;88.39;94311.72;5051436;28;20208;-74
2023/10/15 03:03:50;;;;;;;0.57;0.57;;;;;;;10.79;88.44;94314.00;5041302;28;20200;-75
2023/10/15 03:06:24;;;;;;;0.55;0.55;;;;;;;10.79;89.58;94324.84;5051853;28;20195;-74
2023/10/15 03:08:52;;;;;;;0.20;0.20;;;;;;;10.83;89.69;94320.31;5059326;28;20282;-73
2023/10/15 03:11:21;;;;;;;0.50;0.50;;;;;;;10.86;89.52;94320.44;5048805;28;20216;-73
2023/10/15 03:13:54;;;;;;;0.73;0.73;;;;;;;10.82;89.69;94329.56;5051173;28;20196;-72
2023/10/15 03:16:22;;;;;;;0.25;0.25;;;;;;;10.83;89.73;94321.13;5057985;28;20257;-72
2023/10/15 03:18:48;;;;;;;0.20;0.20;;;;;;;10.84;89.72;94311.06;5056894;28;20235;-72
2023/10/15 03:21:20;;;;;;;0.73;0.73;;;;;;;10.75;89.69;94311.19;5048338;28;20636;-73
2023/10/15 03:23:49;;;;;;;0.55;0.30;;;;;;;10.80;89.66;94316.34;5050685;28;20200;-75
2023/10/15 03:26:18;;;;;;;4.15;1.90;;;;;;;10.78;89.69;94317.84;5050206;28;20200;-73
2023/10/15 03:28:50;;;;;;;3.20;2.10;;;;;;;10.77;89.76;94316.25;5052498;28;20253;-73
2023/10/15 03:31:23;;;;;;;5.82;2.88;;;;;;;10.77;89.47;94310.84;5049431;28;20554;-73
2023/10/15 03:36:44;;;;;;;4.57;2.00;;;;;;;10.77;89.47;94302.72;5049616;28;20754;-78
2023/10/15 03:39:15;;;;;;;3.28;2.15;;;;;;;10.73;89.16;94315.34;5044767;28;20247;-78
2023/10/15 03:41:42;;;;;;;2.50;1.83;;;;;;;10.73;88.99;94312.63;5048966;28;20287;-78
2023/10/15 03:44:10;;;;;;;4.15;2.35;;;;;;;10.59;89.59;94311.03;5052514;28;20211;-78
2023/10/15 03:46:38;;;;;;;2.65;1.92;;;;;;;10.75;88.50;94307.69;5052225;28;20209;-78
2023/10/15 03:49:10;;;;;;;6.25;2.08;;;;;;;10.58;88.56;94301.31;5049059;28;20212;-78
2023/10/15 03:51:40;;;;;;;7.28;3.95;;;;;;;10.58;88.76;94306.72;5052454;28;20207;-78
2023/10/15 03:54:13;;;;;;;6.90;3.45;;;;;;;10.46;89.26;94306.69;5053529;28;20301;-78
2023/10/15 03:56:43;;;;;;;4.32;2.50;;;;;;;10.59;88.88;94300.19;5050782;28;20200;-79
2023/10/15 03:59:13;;;;;;;0.30;0.30;;;;;;;10.52;89.36;94299.16;5050810;28;20321;-77
2023/10/15 04:01:48;;;;;;;0.47;0.45;;;;;;;10.43;90.21;94296.53;5051284;28;20344;-77
2023/10/15 04:04:17;;;;;;;0.65;0.65;;;;;;;10.42;90.50;94297.66;5051095;28;20203;-77
2023/10/15 04:06:51;;;;;;;1.05;1.05;;;;;;;10.40;90.26;94297.19;5050465;28;20207;-77
2023/10/15 04:09:22;;;;;;;0.40;0.40;;;;;;;10.40;90.22;94301.81;5042893;28;20200;-78
2023/10/15 04:11:50;;;;;;;0.75;0.75;;;;;;;10.45;90.18;94299.69;5050459;28;20204;-78
2023/10/15 04:14:28;;;;;;;0.20;0.20;;;;;;;10.49;89.92;94295.22;5050169;28;20210;-77
2023/10/15 04:16:58;;;;;;;1.02;0.88;;;;;;;10.58;89.52;94293.19;5049270;28;20595;-77
2023/10/15 04:19:29;;;;;;;0.28;0.25;;;;;;;10.65;88.56;94288.03;5051589;28;20663;-76
2023/10/15 04:22:03;;;;;;;2.83;1.90;;;;;;;10.60;88.78;94296.34;5053022;28;20200;-77
2023/10/15 04:24:36;;;;;;;2.53;1.73;;;;;;;10.49;89.84;94294.41;5052321;28;20203;-77
2023/10/15 04:27:06;;;;;;;3.53;1.92;;;;;;;10.52;89.67;94285.63;5049792;28;20210;-77
2023/10/15 04:29:43;;;;;;;2.95;2.00;;;;;;;10.51;89.88;94292.16;5049650;28;20196;-77
2023/10/15 04:32:17;;;;;;;3.53;2.10;;;;;;;10.50;89.68;94291.38;5051445;28;20272;-77
2023/10/15 04:34:45;;;;;;;2.47;1.88;;;;;;;10.44;89.73;94298.13;5050019;28;20283;-76
2023/10/15 04:37:16;;;;;;;0.50;0.50;;;;;;;10.25;90.53;94297.84;5050304;28;20249;-76
2023/10/15 04:39:51;;;;;;;0.43;0.43;;;;;;;10.22;91.13;94295.81;5051030;28;20749;-77
2023/10/15 04:42:25;;;;;;;0.20;0.20;;;;;;;10.32;91.57;94295.38;5051304;28;20199;-77
2023/10/15 04:44:53;;;;;;;0.50;0.50;;;;;;;10.50;90.23;94306.84;5052787;28;20575;-75
2023/10/15 04:47:25;;;;;;;0.65;0.65;;;;;;;10.59;89.94;94300.19;5050237;28;20211;-73
2023/10/15 04:49:57;;;;;;;0.45;0.45;;;;;;;10.69;89.12;94294.34;5051397;28;20210;-74
2023/10/15 04:52:24;;;;;;;0.45;0.45;;;;;;;10.83;88.40;94295.94;5049884;28;20195;-74
2023/10/15 04:54:55;;;;;;;0.47;0.47;;;;;;;10.95;87.55;94294.03;5049623;28;20207;-75
2023/10/15 04:57:23;;;;;;;1.20;0.55;;;;;;;10.93;87.21;94292.81;5043033;28;20241;-76
2023/10/15 04:59:50;;;;;;;0.52;0.52;;;;;;;11.13;87.02;94297.31;5054583;28;20377;-75
2023/10/15 05:02:18;;;;;;;0.15;0.15;;;;;;;11.67;86.23;94305.19;5051393;28;20257;-76
2023/10/15 05:04:47;;;;;;;0.20;0.20;;;;;;;12.41;83.54;94309.28;5053111;28;20307;-75
2023/10/15 05:07:15;;;;;;;0.75;0.75;;;;;;;13.16;80.01;94303.88;5057214;28;20295;-74
2023/10/15 05:09:44;;;;;;;1.10;1.10;;;;;;;13.92;77.12;94297.09;5042201;28;20196;-75
2023/10/15 05:12:12;;;;;;;0.65;0.65;;;;;;;14.66;73.89;94305.97;5044578;28;20664;-80
2023/10/15 05:14:39;;;;;;;0.40;0.40;;;;;;;15.33;71.13;94298.19;5050033;28;20229;-77
2023/10/15 05:17:05;;;;;;;1.17;0.73;;;;;;;16.04;67.82;94296.53;5051246;28;20233;-76
2023/10/15 05:19:32;;;;;;;1.05;0.60;;;;;;;16.39;66.40;94298.97;5057687;28;20728;-77
2023/10/15 05:22:01;;;;;;;0.45;0.45;;;;;;;16.92;64.52;94294.09;5073802;28;20211;-79
2023/10/15 05:24:27;;;;;;;1.42;0.98;;;;;;;17.38;63.21;94296.47;5070552;28;20211;-76
2023/10/15 05:26:56;;;;;;;3.40;0.43;;;;;;;17.52;62.18;94288.34;5051960;28;20587;-77
2023/10/15 05:29:24;;;;;;;2.47;1.80;;;;;;;17.89;62.32;94291.00;5052509;28;20614;-75
2023/10/15 05:31:53;;;;;;;2.05;1.63;;;;;;;18.31;60.08;94290.44;5049466;28;20235;-77
2023/10/15 05:34:20;;;;;;;1.00;0.85;;;;;;;18.78;58.58;94289.47;5047738;28;20631;-77
2023/10/15 05:36:47;;;;;;;0.28;0.28;;;;;;;19.27;57.04;94279.75;5047273;28;20200;-78
2023/10/15 05:39:18;;;;;;;0.47;0.47;;;;;;;19.65;56.13;94283.72;5052717;28;20311;-77
2023/10/15 05:41:45;;;;;;;7.38;0.80;;;;;;;19.80;55.66;94279.00;5048602;28;20307;-81
2023/10/15 05:44:12;;;;;;;0.35;0.35;;;;;;;20.04;54.17;94282.91;5053557;28;20282;-81
2023/10/15 05:46:41;;;;;;;3.95;2.05;;;;;;;19.76;54.13;94270.75;5052888;28;20557;-78
2023/10/15 05:49:07;;;;;;;1.05;0.95;;;;;;;19.79;53.81;94272.72;5052190;28;20254;-77
2023/10/15 05:51:34;;;;;;;0.30;0.30;;;;;;;18.96;56.42;94275.03;5053113;28;20204;-81
2023/10/15 05:54:02;;;;;;;0.50;0.50;;;;;;;19.19;55.98;94278.19;5053950;28;20246;-79
2023/10/15 05:56:30;;;;;;;1.02;1.00;;;;;;;19.91;54.21;94268.78;5052134;28;20203;-78
2023/10/15 05:58:57;;;;;;;0.30;0.30;;;;;;;19.81;53.83;94281.38;5050027;28;20211;-77
2023/10/15 06:01:24;;;;;;;0.88;0.88;;;;;;;20.57;52.51;94278.03;5053685;28;20302;-79
2023/10/15 06:03:51;;;;;;;1.05;0.88;;;;;;;19.78;53.38;94282.16;5051822;28;20651;-79
2023/10/15 06:06:18;;;;;;;0.85;0.60;;;;;;;20.18;53.05;94280.09;5049193;28;20203;-79
2023/10/15 06:08:44;;;;;;;0.55;0.55;;;;;;;20.26;52.89;94284.41;5068646;28;20211;-79
2023/10/15 06:11:12;;;;;;;0.98;0.98;;;;;;;19.40;54.69;94293.91;5072187;28;20260;-80
2023/10/15 06:13:40;;;;;;;0.30;0.30;;;;;;;20.09;53.91;94285.25;5071412;28;20207;-76
2023/10/15 06:16:07;;;;;;;6.35;2.65;;;;;;;20.39;53.16;94282.03;5065472;28;20215;-76
2023/10/15 06:18:34;;;;;;;3.47;2.22;;;;;;;20.53;52.47;94282.75;5041112;28;20311;-76
2023/10/15 06:21:01;;;;;;;3.88;2.22;;;;;;;20.90;51.64;94281.44;5066666;28;20579;-78
2023/10/15 06:23:27;;;;;;;17.55;1.20;;;;;;;20.74;51.67;94275.63;5071327;28;20210;-77
2023/10/15 06:25:54;;;;;;;2.80;1.27;;;;;;;21.23;50.79;94269.81;5071930;28;20211;-81
2023/10/15 06:28:22;;;;;;;2.17;1.20;;;;;;;21.37;50.79;94274.44;5071702;28;20332;-78
2023/10/15 06:30:51;;;;;;;0.50;0.50;;;;;;;21.82;48.91;94264.25;5071521;28;20214;-78
2023/10/15 06:33:19;;;;;;;0.65;0.65;;;;;;;21.18;50.15;94261.19;5071244;28;20226;-76
2023/10/15 06:35:46;;;;;;;0.57;0.57;;;;;;;21.05;50.43;94269.13;5059922;28;20200;-78
2023/10/15 06:38:12;;;;;;;4.65;2.80;;;;;;;20.51;51.85;94265.06;5048082;28;20218;-78
2023/10/15 06:40:39;;;;;;;2.92;2.45;;;;;;;20.27;51.58;94261.22;5050817;28;20266;-79
2023/10/15 06:43:06;;;;;;;1.20;0.93;;;;;;;19.78;53.87;94262.91;5059875;28;20210;-77
2023/10/15 06:45:33;;;;;;;5.30;1.08;;;;;;;19.72;53.50;94260.94;5051192;28;20220;-78
2023/10/15 06:48:02;;;;;;;0.55;0.55;;;;;;;19.58;53.63;94267.25;5051332;28;20559;-78
2023/10/15 06:50:30;;;;;;;0.57;0.52;;;;;;;18.60;56.02;94268.63;5051007;28;20669;-77
2023/10/15 06:53:01;;;;;;;1.23;0.82;;;;;;;18.16;57.70;94266.88;5051026;28;20246;-79
2023/10/15 06:55:31;;;;;;;0.95;0.95;;;;;;;18.55;57.35;94266.25;5049246;28;20257;-78
2023/10/15 06:57:58;;;;;;;0.82;0.82;;;;;;;18.75;56.69;94259.28;5049892;28;20219;-77
2023/10/15 07:00:25;;;;;;;0.50;0.50;;;;;;;18.68;56.94;94259.28;5048804;28;20231;-78
2023/10/15 07:02:53;;;;;;;0.60;0.60;;;;;;;18.94;55.83;94250.69;5051261;28;20222;-79
2023/10/15 07:05:23;;;;;;;1.67;0.82;;;;;;;18.45;57.40;94249.34;5054245;28;20219;-79
2023/10/15 07:07:50;;;;;;;0.45;0.45;;;;;;;18.59;57.07;94239.63;5048745;28;20207;-80
2023/10/15 07:10:18;;;;;;;1.35;0.82;;;;;;;18.85;56.75;94242.06;5049813;28;20208;-79
2023/10/15 07:12:45;;;;;;;0.80;0.75;;;;;;;18.71;56.62;94242.81;5047636;28;20216;-76
2023/10/15 07:15:14;;;;;;;1.33;0.95;;;;;;;18.56;57.55;94245.88;5049746;28;20211;-77
2023/10/15 07:17:42;;;;;;;6.20;2.83;;;;;;;18.50;56.63;94236.44;5047477;28;20295;-77
2023/10/15 07:20:14;;;;;;;0.60;0.60;;;;;;;18.25;57.11;94237.16;5050042;28;20230;-76
2023/10/15 07:22:46;;;;;;;3.08;0.98;;;;;;;18.04;57.30;94237.06;5051175;28;20206;-76
2023/10/15 07:25:13;;;;;;;1.17;1.10;;;;;;;18.04;58.02;94229.59;5049780;28;20203;-78
2023/10/15 07:27:41;;;;;;;2.72;2.00;;;;;;;18.36;57.35;94237.19;5049761;28;20683;-77
2023/10/15 07:30:12;;;;;;;3.05;1.90;;;;;;;18.31;56.94;94238.34;5050706;28;20212;-76
2023/10/15 07:32:40;;;;;;;0.50;0.50;;;;;;;18.19;57.75;94238.69;5050232;28;20610;-76
2023/10/15 07:35:11;;;;;;;3.05;1.98;;;;;;;17.91;58.09;94233.06;5049140;28;20295;-75
2023/10/15 07:37:40;;;;;;;2.08;0.90;;;;;;;17.85;58.69;94229.91;5041897;28;20286;-74
2023/10/15 07:40:16;;;;;;;1.00;1.00;;;;;;;18.02;58.46;94233.91;5050149;28;20235;-78
2023/10/15 07:42:44;;;;;;;0.68;0.68;;;;;;;18.18;58.42;94236.34;5055277;28;20309;-78
2023/10/15 07:45:14;;;;;;;4.30;2.40;;;;;;;18.07;58.00;94228.84;5053248;28;20226;-79
2023/10/15 07:47:41;;;;;;;8.23;2.33;;;;;;;18.01;58.54;94224.13;5049414;28;20218;-76
2023/10/15 07:50:12;;;;;;;2.22;0.98;;;;;;;18.36;58.50;94221.50;5066654;28;20211;-76
2023/10/15 07:52:40;;;;;;;1.15;0.98;;;;;;;18.11;58.04;94223.38;5068094;28;20314;-75
2023/10/15 07:55:10;;;;;;;1.00;0.73;;;;;;;18.01;58.41;94218.66;5069129;28;20207;-74
2023/10/15 07:57:37;;;;;;;1.13;0.75;;;;;;;18.11;58.05;94220.63;5069530;28;20583;-76
2023/10/15 08:00:06;;;;;;;1.60;0.63;;;;;;;18.36;58.75;94218.78;5059338;28;20223;-77
2023/10/15 08:02:35;;;;;;;0.63;0.63;;;;;;;18.53;57.07;94208.25;5049550;28;20595;-79
2023/10/15 08:05:02;;;;;;;1.30;0.82;;;;;;;18.69;57.11;94208.72;5049969;28;20310;-80
2023/10/15 08:07:29;;;;;;;3.00;2.10;;;;;;;18.80;56.97;94215.00;5049369;28;20227;-77
2023/10/15 08:09:55;;;;;;;0.40;0.40;;;;;;;18.70;55.80;94207.53;5049512;28;20269;-75
2023/10/15 08:12:27;;;;;;;4.43;2.22;;;;;;;18.79;55.77;94213.44;5049518;28;20216;-76
2023/10/15 08:14:57;;;;;;;4.55;2.03;;;;;;;19.27;54.65;94218.56;5049984;28;20559;-76
2023/10/15 08:17:24;;;;;;;1.75;0.95;;;;;;;19.32;53.52;94207.97;5053933;28;20235;-76
2023/10/15 08:19:52;;;;;;;3.08;1.70;;;;;;;19.19;53.86;94204.03;5050399;28;20346;-78
2023/10/15 08:22:19;;;;;;;1.67;0.70;;;;;;;19.73;53.07;94191.84;5049873;28;20235;-76
2023/10/15 08:24:46;;;;;;;2.38;0.77;;;;;;;19.86;52.89;94195.72;5049030;28;20276;-76
2023/10/15 08:27:13;;;;;;;3.85;1.92;;;;;;;19.99;52.86;94189.78;5049602;28;20564;-77
2023/10/15 08:29:42;;;;;;;5.45;1.92;;;;;;;19.95;52.61;94191.78;5048671;28;20294;-78
2023/10/15 08:32:16;;;;;;;2.05;1.50;;;;;;;19.92;52.87;94187.09;5050664;28;20202;-78
2023/10/15 08:34:47;;;;;;;3.80;1.00;;;;;;;19.84;52.19;94189.06;5048987;28;20580;-77
2023/10/15 08:37:14;;;;;;;3.85;1.75;;;;;;;19.55;52.94;94185.59;5044099;28;20606;-77
2023/10/15 08:39:41;;;;;;;3.35;2.47;;;;;;;19.64;53.09;94185.97;5048662;28;20230;-76
2023/10/15 08:42:13;;;;;;;2.85;1.70;;;;;;;20.01;52.57;94173.69;5050247;28;20294;-77
2023/10/15 08:44:41;;;;;;;3.33;1.67;;;;;;;20.25;52.15;94183.78;5048542;28;20188;-78
2023/10/15 08:47:13;;;;;;;2.53;2.00;;;;;;;20.36;52.26;94184.59;5052996;28;20287;-79
2023/10/15 08:49:46;;;;;;;3.17;2.25;;;;;;;19.94;52.34;94184.72;5051105;28;20204;-77
2023/10/15 08:52:15;;;;;;;4.00;1.73;;;;;;;20.09;52.53;94186.25;5046473;28;20200;-77
2023/10/15 08:54:44;;;;;;;4.07;2.50;;;;;;;20.26;51.93;94173.59;5049401;28;20640;-79
2023/10/15 08:57:12;;;;;;;2.75;1.80;;;;;;;20.41;52.65;94169.59;5046267;28;20208;-80
2023/10/15 08:59:39;;;;;;;2.58;1.98;;;;;;;20.57;51.88;94181.72;5049981;28;20204;-78
2023/10/15 09:02:10;;;;;;;4.50;2.58;;;;;;;20.73;50.65;94175.72;5051572;28;20192;-79
2023/10/15 09:04:37;;;;;;;2.97;1.92;;;;;;;20.37;51.91;94177.09;5046936;28;20664;-78
2023/10/15 09:07:06;;;;;;;4.95;2.75;;;;;;;20.54;51.46;94163.25;5047645;28;20974;-78
2023/10/15 09:09:34;;;;;;;2.42;1.90;;;;;;;20.79;51.18;94152.06;5045897;28;20210;-79
2023/10/15 09:12:01;;;;;;;3.00;2.13;;;;;;;20.67;51.11;94160.00;5050611;28;20734;-77
2023/10/15 09:14:38;;;;;;;4.93;2.08;;;;;;;20.76;50.88;94149.34;5051570;28;20260;-78
2023/10/15 09:17:09;;;;;;;3.28;2.38;;;;;;;20.93;50.31;94151.19;5063426;28;20253;-77
2023/10/15 09:19:39;;;;;;;2.00;1.80;;;;;;;21.22;50.41;94144.28;5048526;28;20334;-78
2023/10/15 09:22:06;;;;;;;3.13;2.47;;;;;;;21.50;49.61;94151.50;5048587;28;20227;-78
2023/10/15 09:24:33;;;;;;;2.80;1.60;;;;;;;21.74;49.87;94133.13;5048290;28;20417;-78
2023/10/15 09:27:01;;;;;;;2.65;2.33;;;;;;;21.49;48.88;94140.88;5047784;28;20671;-79
2023/10/15 09:29:30;;;;;;;2.65;1.63;;;;;;;21.35;49.77;94132.75;5048539;28;20216;-78
2023/10/15 09:31:56;;;;;;;3.28;1.80;;;;;;;21.18;49.97;94135.22;5049012;28;20695;-79
2023/10/15 09:34:23;;;;;;;2.72;1.80;;;;;;;21.43;49.67;94123.25;5048634;28;20265;-80
2023/10/15 09:36:52;;;;;;;2.08;1.65;;;;;;;21.70;49.12;94131.63;5048699;28;20307;-78
2023/10/15 09:39:19;;;;;;;3.75;2.40;;;;;;;21.84;48.41;94126.72;5048415;28;20228;-79
2023/10/15 09:41:46;;;;;;;2.83;1.80;;;;;;;22.04;48.57;94120.59;5048241;28;20715;-78
2023/10/15 09:44:15;;;;;;;3.30;2.28;;;;;;;22.08;47.92;94124.09;5058398;28;20217;-80
2023/10/15 09:46:43;;;;;;;2.85;2.10;;;;;;;22.12;48.07;94116.56;5047984;28;20328;-78
2023/10/15 09:49:12;;;;;;;3.63;1.88;;;;;;;22.30;47.45;94117.09;5048611;28;20215;-79
2023/10/15 09:51:39;;;;;;;3.35;2.03;;;;;;;22.57;46.95;94117.91;5050728;28;20204;-78
2023/10/15 09:54:11;;;;;;;2.67;1.40;;;;;;;22.38;47.38;94113.06;5052315;28;20219;-78
2023/10/15 09:56:40;;;;;;;2.53;1.95;;;;;;;22.01;47.92;94113.16;5055098;28;20213;-80
2023/10/15 09:59:07;;;;;;;4.50;2.17;;;;;;;21.99;48.14;94110.81;5071735;28;20217;-79
2023/10/15 10:01:36;;;;;;;3.35;1.92;;;;;;;22.37;48.16;94100.47;5073236;28;20230;-80
2023/10/15 10:04:24;;;;;;;3.53;2.33;;;;;;;22.69;46.93;94086.16;5072991;28;20714;-79
2023/10/15 10:07:47;;;;;;;2.55;1.73;;;;;;;22.48;47.35;94087.28;5072112;28;20234;-78
2023/10/15 10:10:51;;;;;;;2.42;1.65;;;;;;;22.52;47.45;94085.28;5049158;28;20221;-79
2023/10/15 10:13:40;;;;;;;1.88;1.65;;;;;;;22.90;47.11;94076.81;5073283;28;20228;-80
2023/10/15 10:16:19;;;;;;;2.42;1.65;;;;;;;22.84;46.51;94076.50;5075173;28;20681;-81
2023/10/15 10:18:50;;;;;;;2.47;1.50;;;;;;;23.01;46.66;94063.59;5073691;28;20313;-83
2023/10/15 10:21:16;;;;;;;2.25;1.50;;;;;;;23.14;46.44;94067.31;5072482;28;20230;-80
2023/10/15 10:23:44;;;;;;;2.58;1.85;;;;;;;23.31;46.53;94070.97;5073711;28;20215;-77
2023/10/15 10:26:16;;;;;;;1.50;1.27;;;;;;;23.29;46.58;94067.84;5053970;28;20203;-78
2023/10/15 10:28:44;;;;;;;2.95;1.55;;;;;;;23.30;46.07;94059.13;5054605;28;20266;-80
2023/10/15 10:31:11;;;;;;;1.52;1.33;;;;;;;23.08;46.05;94055.19;5053799;28;20207;-78
2023/10/15 10:33:55;;;;;;;1.73;1.40;;;;;;;23.06;46.36;94049.31;5053682;28;20747;-81
2023/10/15 10:36:25;;;;;;;1.40;1.30;;;;;;;23.21;45.48;94055.38;5043899;28;20208;-80
2023/10/15 10:39:00;;;;;;;2.28;1.27;;;;;;;23.27;45.90;94043.38;5050745;28;20281;-85
2023/10/15 10:41:38;;;;;;;1.52;1.40;;;;;;;23.35;46.16;94039.31;5049668;28;20227;-78
2023/10/15 10:44:15;;;;;;;1.75;1.50;;;;;;;23.47;45.13;94024.06;5051738;28;20689;-79
2023/10/15 10:46:44;;;;;;;3.15;1.90;;;;;;;23.78;44.82;94032.19;5054283;28;20206;-80
2023/10/15 10:49:16;;;;;;;1.63;1.25;;;;;;;23.94;44.25;94019.16;5053928;28;20211;-81
2023/10/15 10:51:44;;;;;;;1.77;1.38;;;;;;;23.89;44.17;94016.91;5052148;28;20207;-79
2023/10/15 10:54:29;;;;;;;1.77;1.30;;;;;;;23.86;44.54;94012.25;5052358;28;20225;-80
2023/10/15 10:57:00;;;;;;;1.10;1.00;;;;;;;24.17;43.81;94003.69;5053347;28;20215;-80
2023/10/15 10:59:29;;;;;;;1.65;1.23;;;;;;;24.15;42.31;94000.56;5052881;28;20208;-79
2023/10/15 11:01:56;;;;;;;1.75;1.00;;;;;;;23.93;41.66;93994.69;5051611;28;20223;-79
2023/10/15 11:04:25;;;;;;;3.05;1.10;;;;;;;24.10;41.46;93988.00;5052765;28;20212;-79
2023/10/15 11:06:52;;;;;;;3.83;1.98;;;;;;;24.24;40.78;93992.47;5052198;28;20332;-75
2023/10/15 11:09:20;;;;;;;2.13;1.40;;;;;;;23.70;41.56;93992.81;5052506;28;20218;-76
2023/10/15 11:11:48;;;;;;;1.70;1.30;;;;;;;23.66;41.60;93992.09;5051431;28;20230;-76
2023/10/15 11:14:18;;;;;;;1.63;1.02;;;;;;;23.78;41.47;93988.69;5052907;28;20267;-75
2023/10/15 11:16:45;;;;;;;1.67;1.10;;;;;;;23.51;41.08;93997.13;5055061;28;20217;-74
2023/10/15 11:19:17;;;;;;;1.83;1.55;;;;;;;23.66;41.91;93992.88;5051646;28;20242;-77
2023/10/15 11:21:46;;;;;;;1.63;1.50;;;;;;;23.70;41.86;93987.28;5047881;28;20266;-77
2023/10/15 11:24:13;;;;;;;1.45;1.17;;;;;;;23.67;42.30;93972.31;5051823;28;20234;-73
2023/10/15 11:26:42;;;;;;;1.92;1.20;;;;;;;23.78;42.92;93977.63;5051757;28;20203;-78
2023/10/15 11:29:10;;;;;;;1.67;1.10;;;;;;;23.69;42.60;93980.19;5053395;28;20257;-80
2023/10/15 11:31:42;;;;;;;1.17;0.90;;;;;;;23.56;42.23;93976.53;5051351;28;20199;-79
2023/10/15 11:34:10;;;;;;;1.52;1.20;;;;;;;23.77;42.57;93978.06;5053323;28;20203;-80
2023/10/15 11:36:43;;;;;;;3.50;1.42;;;;;;;23.96;41.86;93960.63;5051410;28;20665;-79
2023/10/15 11:39:18;;;;;;;2.05;1.30;;;;;;;23.80;41.59;93972.44;5051470;28;20216;-78
2023/10/15 11:41:50;;;;;;;2.00;1.38;;;;;;;23.69;42.32;93958.84;5048414;28;20625;-78
2023/10/15 11:44:17;;;;;;;1.52;0.98;;;;;;;23.81;42.47;93959.38;5053716;28;20736;-79
2023/10/15 11:46:47;;;;;;;1.60;1.35;;;;;;;23.50;43.09;93969.91;5052253;28;21157;-76
2023/10/15 11:49:14;;;;;;;1.85;1.27;;;;;;;23.62;43.27;93959.00;5046016;28;20239;-75
2023/10/15 11:51:43;;;;;;;3.20;1.83;;;;;;;23.86;42.87;93962.44;5049210;28;20202;-76